sensor_id;sensor_type;location;lat;lon;timestamp;pressure;altitude;pressure_sealevel;temperature;humidity
10732;BME280;5417;42.686;23.244;2023-01-25T00:02:08;95390.75;;;4.01;72.41
10732;BME280;5417;42.686;23.244;2023-01-25T00:04:36;95383.97;;;3.98;72.95
10732;BME280;5417;42.686;23.244;2023-01-25T00:07:04;95392.22;;;4.06;73.06
10732;BME280;5417;42.686;23.244;2023-01-25T00:09:31;95392.47;;;4.00;72.58
10732;BME280;5417;42.686;23.244;2023-01-25T00:11:57;95377.56;;;3.87;72.23
10732;BME280;5417;42.686;23.244;2023-01-25T00:14:24;95392.53;;;3.99;72.84
10732;BME280;5417;42.686;23.244;2023-01-25T00:16:54;95374.25;;;4.05;72.83
10732;BME280;5417;42.686;23.244;2023-01-25T00:19:21;95376.19;;;4.00;72.80
10732;BME280;5417;42.686;23.244;2023-01-25T00:21:50;95385.53;;;4.02;73.22
10732;BME280;5417;42.686;23.244;2023-01-25T00:24:17;95392.81;;;4.13;73.04
10732;BME280;5417;42.686;23.244;2023-01-25T00:26:50;95381.94;;;4.06;73.18
10732;BME280;5417;42.686;23.244;2023-01-25T00:29:18;95378.16;;;3.93;72.72
10732;BME280;5417;42.686;23.244;2023-01-25T00:32:07;95378.75;;;4.00;73.38
10732;BME280;5417;42.686;23.244;2023-01-25T00:34:57;95388.88;;;4.04;73.55
10732;BME280;5417;42.686;23.244;2023-01-25T00:37:35;95389.91;;;4.00;73.75
10732;BME280;5417;42.686;23.244;2023-01-25T00:40:05;95379.97;;;3.91;73.81
10732;BME280;5417;42.686;23.244;2023-01-25T00:42:33;95395.25;;;3.96;73.51
10732;BME280;5417;42.686;23.244;2023-01-25T00:45:00;95377.34;;;3.93;73.17
10732;BME280;5417;42.686;23.244;2023-01-25T00:47:27;95361.00;;;3.72;73.48
10732;BME280;5417;42.686;23.244;2023-01-25T00:49:56;95393.69;;;3.92;73.85
10732;BME280;5417;42.686;23.244;2023-01-25T00:52:25;95376.81;;;3.85;72.91
10732;BME280;5417;42.686;23.244;2023-01-25T00:54:55;95391.94;;;3.92;72.96
10732;BME280;5417;42.686;23.244;2023-01-25T00:57:22;95364.22;;;3.77;73.57
10732;BME280;5417;42.686;23.244;2023-01-25T00:59:49;95379.97;;;3.91;73.16
10732;BME280;5417;42.686;23.244;2023-01-25T01:02:18;95389.63;;;3.86;73.08
10732;BME280;5417;42.686;23.244;2023-01-25T01:04:45;95391.22;;;3.89;72.81
10732;BME280;5417;42.686;23.244;2023-01-25T01:07:13;95379.03;;;3.72;73.15
10732;BME280;5417;42.686;23.244;2023-01-25T01:09:45;95356.59;;;3.52;73.70
10732;BME280;5417;42.686;23.244;2023-01-25T01:12:12;95370.03;;;3.60;73.51
10732;BME280;5417;42.686;23.244;2023-01-25T01:14:38;95359.13;;;3.54;72.80
10732;BME280;5417;42.686;23.244;2023-01-25T01:17:07;95399.38;;;3.78;73.22
10732;BME280;5417;42.686;23.244;2023-01-25T01:19:34;95383.34;;;3.71;73.56
10732;BME280;5417;42.686;23.244;2023-01-25T01:22:01;95387.47;;;3.75;73.14
10732;BME280;5417;42.686;23.244;2023-01-25T01:24:28;95379.88;;;3.72;73.88
10732;BME280;5417;42.686;23.244;2023-01-25T01:26:58;95373.03;;;3.71;73.06
10732;BME280;5417;42.686;23.244;2023-01-25T01:29:25;95374.22;;;3.63;72.97
10732;BME280;5417;42.686;23.244;2023-01-25T01:31:52;95368.34;;;3.59;73.65
10732;BME280;5417;42.686;23.244;2023-01-25T01:34:19;95363.31;;;3.56;73.41
10732;BME280;5417;42.686;23.244;2023-01-25T01:36:46;95366.72;;;3.57;74.13
10732;BME280;5417;42.686;23.244;2023-01-25T01:39:16;95371.94;;;3.55;74.13
10732;BME280;5417;42.686;23.244;2023-01-25T01:41:43;95367.38;;;3.62;75.20
10732;BME280;5417;42.686;23.244;2023-01-25T01:44:16;95366.34;;;3.67;74.18
10732;BME280;5417;42.686;23.244;2023-01-25T01:46:50;95356.44;;;3.57;74.84
10732;BME280;5417;42.686;23.244;2023-01-25T01:49:30;95362.09;;;3.66;74.61
10732;BME280;5417;42.686;23.244;2023-01-25T01:52:08;95359.56;;;3.65;74.52
10732;BME280;5417;42.686;23.244;2023-01-25T01:54:47;95369.31;;;3.78;74.39
10732;BME280;5417;42.686;23.244;2023-01-25T01:57:17;95364.63;;;3.88;73.93
10732;BME280;5417;42.686;23.244;2023-01-25T01:59:50;95363.63;;;3.92;73.46
10732;BME280;5417;42.686;23.244;2023-01-25T02:02:18;95369.34;;;3.99;73.16
10732;BME280;5417;42.686;23.244;2023-01-25T02:04:47;95349.13;;;3.90;73.60
10732;BME280;5417;42.686;23.244;2023-01-25T02:07:20;95370.31;;;4.18;73.09
10732;BME280;5417;42.686;23.244;2023-01-25T02:09:49;95366.06;;;4.17;72.03
10732;BME280;5417;42.686;23.244;2023-01-25T02:12:18;95368.84;;;4.11;72.59
10732;BME280;5417;42.686;23.244;2023-01-25T02:14:49;95362.09;;;4.08;72.03
10732;BME280;5417;42.686;23.244;2023-01-25T02:17:18;95362.16;;;4.07;72.23
10732;BME280;5417;42.686;23.244;2023-01-25T02:19:54;95337.47;;;3.81;71.79
10732;BME280;5417;42.686;23.244;2023-01-25T02:22:28;95372.38;;;3.88;72.04
10732;BME280;5417;42.686;23.244;2023-01-25T02:25:03;95350.19;;;3.62;72.55
10732;BME280;5417;42.686;23.244;2023-01-25T02:27:32;95360.56;;;3.83;73.23
10732;BME280;5417;42.686;23.244;2023-01-25T02:30:03;95355.38;;;3.84;72.76
10732;BME280;5417;42.686;23.244;2023-01-25T02:32:30;95374.34;;;3.82;73.34
10732;BME280;5417;42.686;23.244;2023-01-25T02:34:57;95360.03;;;3.74;73.19
10732;BME280;5417;42.686;23.244;2023-01-25T02:37:25;95363.41;;;3.76;73.45
10732;BME280;5417;42.686;23.244;2023-01-25T02:39:52;95355.06;;;3.70;72.30
10732;BME280;5417;42.686;23.244;2023-01-25T02:42:21;95361.00;;;3.72;71.98
10732;BME280;5417;42.686;23.244;2023-01-25T02:44:49;95357.00;;;3.65;71.50
10732;BME280;5417;42.686;23.244;2023-01-25T02:47:17;95347.34;;;3.48;72.05
10732;BME280;5417;42.686;23.244;2023-01-25T02:49:54;95355.59;;;3.56;72.21
10732;BME280;5417;42.686;23.244;2023-01-25T02:52:23;95361.69;;;3.54;72.63
10732;BME280;5417;42.686;23.244;2023-01-25T02:54:50;95360.09;;;3.51;72.93
10732;BME280;5417;42.686;23.244;2023-01-25T02:57:17;95358.94;;;3.58;73.26
10732;BME280;5417;42.686;23.244;2023-01-25T02:59:50;95357.78;;;3.67;73.48
10732;BME280;5417;42.686;23.244;2023-01-25T03:02:16;95353.63;;;3.63;72.47
10732;BME280;5417;42.686;23.244;2023-01-25T03:04:46;95364.66;;;3.66;72.30
10732;BME280;5417;42.686;23.244;2023-01-25T03:07:13;95360.41;;;3.65;72.28
10732;BME280;5417;42.686;23.244;2023-01-25T03:09:39;95349.31;;;3.63;71.78
10732;BME280;5417;42.686;23.244;2023-01-25T03:12:12;95363.88;;;3.64;72.39
10732;BME280;5417;42.686;23.244;2023-01-25T03:14:39;95330.47;;;3.41;72.06
10732;BME280;5417;42.686;23.244;2023-01-25T03:17:18;95354.03;;;3.52;72.23
10732;BME280;5417;42.686;23.244;2023-01-25T03:19:51;95357.38;;;3.54;72.28
10732;BME280;5417;42.686;23.244;2023-01-25T03:22:19;95357.63;;;3.48;72.40
10732;BME280;5417;42.686;23.244;2023-01-25T03:24:48;95359.84;;;3.57;72.46
10732;BME280;5417;42.686;23.244;2023-01-25T03:27:31;95356.53;;;3.54;72.65
10732;BME280;5417;42.686;23.244;2023-01-25T03:29:58;95348.47;;;3.63;72.96
10732;BME280;5417;42.686;23.244;2023-01-25T03:32:35;95362.88;;;3.68;73.32
10732;BME280;5417;42.686;23.244;2023-01-25T03:35:02;95367.16;;;3.68;74.07
10732;BME280;5417;42.686;23.244;2023-01-25T03:37:29;95361.59;;;3.78;72.44
10732;BME280;5417;42.686;23.244;2023-01-25T03:39:56;95351.00;;;3.64;72.49
10732;BME280;5417;42.686;23.244;2023-01-25T03:42:23;95343.63;;;3.55;72.56
10732;BME280;5417;42.686;23.244;2023-01-25T03:44:50;95353.88;;;3.78;72.72
10732;BME280;5417;42.686;23.244;2023-01-25T03:47:17;95358.31;;;3.75;72.30
10732;BME280;5417;42.686;23.244;2023-01-25T03:49:46;95349.47;;;3.59;72.56
10732;BME280;5417;42.686;23.244;2023-01-25T03:52:13;95340.56;;;3.45;72.55
10732;BME280;5417;42.686;23.244;2023-01-25T03:54:40;95330.34;;;3.44;72.76
10732;BME280;5417;42.686;23.244;2023-01-25T03:57:07;95338.84;;;3.46;72.49
10732;BME280;5417;42.686;23.244;2023-01-25T03:59:34;95338.66;;;3.51;72.29
10732;BME280;5417;42.686;23.244;2023-01-25T04:02:01;95319.09;;;3.46;72.18
10732;BME280;5417;42.686;23.244;2023-01-25T04:04:28;95329.91;;;3.55;71.97
10732;BME280;5417;42.686;23.244;2023-01-25T04:06:58;95340.31;;;3.52;72.37
10732;BME280;5417;42.686;23.244;2023-01-25T04:09:25;95324.28;;;3.45;72.70
10732;BME280;5417;42.686;23.244;2023-01-25T04:11:52;95328.84;;;3.60;72.22
10732;BME280;5417;42.686;23.244;2023-01-25T04:14:19;95315.97;;;3.60;72.65
10732;BME280;5417;42.686;23.244;2023-01-25T04:16:48;95331.28;;;3.63;72.60
10732;BME280;5417;42.686;23.244;2023-01-25T04:19:18;95298.63;;;3.43;72.98
10732;BME280;5417;42.686;23.244;2023-01-25T04:21:51;95325.97;;;3.68;72.81
10732;BME280;5417;42.686;23.244;2023-01-25T04:24:22;95334.19;;;3.77;72.52
10732;BME280;5417;42.686;23.244;2023-01-25T04:26:49;95299.75;;;3.58;72.18
10732;BME280;5417;42.686;23.244;2023-01-25T04:29:17;95320.97;;;3.65;71.21
10732;BME280;5417;42.686;23.244;2023-01-25T04:31:44;95313.00;;;3.71;70.35
10732;BME280;5417;42.686;23.244;2023-01-25T04:34:11;95340.75;;;3.85;70.46
10732;BME280;5417;42.686;23.244;2023-01-25T04:36:37;95342.56;;;3.83;71.44
10732;BME280;5417;42.686;23.244;2023-01-25T04:39:04;95355.66;;;3.76;71.27
10732;BME280;5417;42.686;23.244;2023-01-25T04:41:44;95332.50;;;3.55;71.93
10732;BME280;5417;42.686;23.244;2023-01-25T04:44:11;95346.16;;;3.78;71.26
10732;BME280;5417;42.686;23.244;2023-01-25T04:46:47;95353.22;;;3.73;71.90
10732;BME280;5417;42.686;23.244;2023-01-25T04:49:15;95328.72;;;3.63;71.87
10732;BME280;5417;42.686;23.244;2023-01-25T04:51:56;95335.50;;;3.66;71.09
10732;BME280;5417;42.686;23.244;2023-01-25T04:54:23;95341.69;;;3.60;71.19
10732;BME280;5417;42.686;23.244;2023-01-25T04:56:51;95352.69;;;3.65;70.63
10732;BME280;5417;42.686;23.244;2023-01-25T04:59:18;95356.69;;;3.72;71.34
10732;BME280;5417;42.686;23.244;2023-01-25T05:01:45;95348.06;;;3.73;70.47
10732;BME280;5417;42.686;23.244;2023-01-25T05:04:12;95349.09;;;3.69;70.55
10732;BME280;5417;42.686;23.244;2023-01-25T05:06:41;95342.91;;;3.73;71.37
10732;BME280;5417;42.686;23.244;2023-01-25T05:09:09;95346.41;;;3.72;71.52
10732;BME280;5417;42.686;23.244;2023-01-25T05:11:36;95342.09;;;3.73;71.75
10732;BME280;5417;42.686;23.244;2023-01-25T05:14:04;95351.31;;;3.78;72.14
10732;BME280;5417;42.686;23.244;2023-01-25T05:16:31;95341.53;;;3.87;72.14
10732;BME280;5417;42.686;23.244;2023-01-25T05:18:58;95346.03;;;3.82;71.85
10732;BME280;5417;42.686;23.244;2023-01-25T05:21:28;95341.66;;;3.84;71.83
10732;BME280;5417;42.686;23.244;2023-01-25T05:24:13;95344.22;;;3.84;72.08
10732;BME280;5417;42.686;23.244;2023-01-25T05:26:40;95342.31;;;3.89;71.90
10732;BME280;5417;42.686;23.244;2023-01-25T05:29:46;95331.38;;;4.04;71.63
10732;BME280;5417;42.686;23.244;2023-01-25T05:32:15;95341.94;;;3.98;71.29
10732;BME280;5417;42.686;23.244;2023-01-25T05:37:33;95341.66;;;3.84;70.98
10732;BME280;5417;42.686;23.244;2023-01-25T05:40:01;95338.50;;;3.77;71.68
10732;BME280;5417;42.686;23.244;2023-01-25T05:42:28;95344.47;;;3.77;71.58
10732;BME280;5417;42.686;23.244;2023-01-25T05:44:57;95346.94;;;3.80;72.27
10732;BME280;5417;42.686;23.244;2023-01-25T05:47:24;95335.78;;;3.80;71.62
10732;BME280;5417;42.686;23.244;2023-01-25T05:49:51;95315.25;;;3.78;71.73
10732;BME280;5417;42.686;23.244;2023-01-25T05:52:18;95331.34;;;3.84;71.31
10732;BME280;5417;42.686;23.244;2023-01-25T05:54:45;95329.28;;;3.71;71.48
10732;BME280;5417;42.686;23.244;2023-01-25T05:57:12;95323.47;;;3.66;71.93
10732;BME280;5417;42.686;23.244;2023-01-25T05:59:40;95341.91;;;3.77;71.93
10732;BME280;5417;42.686;23.244;2023-01-25T06:02:08;95351.81;;;3.87;72.41
10732;BME280;5417;42.686;23.244;2023-01-25T06:04:35;95325.03;;;3.70;72.68
10732;BME280;5417;42.686;23.244;2023-01-25T06:07:02;95329.09;;;3.76;72.02
10732;BME280;5417;42.686;23.244;2023-01-25T06:09:29;95357.81;;;3.87;72.41
10732;BME280;5417;42.686;23.244;2023-01-25T06:11:58;95340.75;;;3.85;72.14
10732;BME280;5417;42.686;23.244;2023-01-25T06:14:30;95334.25;;;3.76;72.02
10732;BME280;5417;42.686;23.244;2023-01-25T06:16:58;95357.56;;;3.93;72.48
10732;BME280;5417;42.686;23.244;2023-01-25T06:19:27;95333.22;;;3.80;72.35
10732;BME280;5417;42.686;23.244;2023-01-25T06:21:54;95350.81;;;3.91;72.71
10732;BME280;5417;42.686;23.244;2023-01-25T06:24:21;95367.03;;;3.93;72.81
10732;BME280;5417;42.686;23.244;2023-01-25T06:26:48;95337.59;;;3.78;72.89
10732;BME280;5417;42.686;23.244;2023-01-25T06:29:15;95336.50;;;3.84;72.49
10732;BME280;5417;42.686;23.244;2023-01-25T06:31:42;95331.53;;;3.79;73.02
10732;BME280;5417;42.686;23.244;2023-01-25T06:34:09;95349.91;;;3.92;73.73
10732;BME280;5417;42.686;23.244;2023-01-25T06:36:37;95357.38;;;3.98;73.36
10732;BME280;5417;42.686;23.244;2023-01-25T06:39:04;95350.63;;;3.95;73.93
10732;BME280;5417;42.686;23.244;2023-01-25T06:41:31;95347.97;;;3.97;74.05
10732;BME280;5417;42.686;23.244;2023-01-25T06:43:58;95349.72;;;3.96;74.02
10732;BME280;5417;42.686;23.244;2023-01-25T06:46:25;95348.94;;;3.94;73.07
10732;BME280;5417;42.686;23.244;2023-01-25T06:48:52;95356.44;;;3.78;72.27
10732;BME280;5417;42.686;23.244;2023-01-25T06:51:19;95353.78;;;3.58;71.89
10732;BME280;5417;42.686;23.244;2023-01-25T06:53:48;95358.88;;;3.60;73.20
10732;BME280;5417;42.686;23.244;2023-01-25T06:56:17;95349.22;;;3.66;72.57
10732;BME280;5417;42.686;23.244;2023-01-25T06:58:45;95345.19;;;3.59;72.44
10732;BME280;5417;42.686;23.244;2023-01-25T07:01:14;95352.69;;;3.65;71.98
10732;BME280;5417;42.686;23.244;2023-01-25T07:03:43;95345.19;;;3.59;72.19
10732;BME280;5417;42.686;23.244;2023-01-25T07:06:10;95352.78;;;3.62;72.71
10732;BME280;5417;42.686;23.244;2023-01-25T07:08:37;95356.16;;;3.64;72.00
10732;BME280;5417;42.686;23.244;2023-01-25T07:11:08;95351.88;;;3.63;72.03
10732;BME280;5417;42.686;23.244;2023-01-25T07:13:39;95352.06;;;3.59;71.57
10732;BME280;5417;42.686;23.244;2023-01-25T07:16:09;95352.25;;;3.54;71.32
10732;BME280;5417;42.686;23.244;2023-01-25T07:18:37;95357.38;;;3.54;71.60
10732;BME280;5417;42.686;23.244;2023-01-25T07:21:05;95350.63;;;3.52;71.48
10732;BME280;5417;42.686;23.244;2023-01-25T07:23:33;95353.25;;;3.50;72.02
10732;BME280;5417;42.686;23.244;2023-01-25T07:26:02;95352.97;;;3.58;71.50
10732;BME280;5417;42.686;23.244;2023-01-25T07:28:32;95366.84;;;3.54;71.86
10732;BME280;5417;42.686;23.244;2023-01-25T07:31:03;95359.06;;;3.55;72.29
10732;BME280;5417;42.686;23.244;2023-01-25T07:33:31;95344.22;;;3.40;72.04
10732;BME280;5417;42.686;23.244;2023-01-25T07:35:59;95363.66;;;3.47;71.59
10732;BME280;5417;42.686;23.244;2023-01-25T07:38:26;95373.66;;;3.33;72.07
10732;BME280;5417;42.686;23.244;2023-01-25T07:40:53;95371.03;;;3.34;73.23
10732;BME280;5417;42.686;23.244;2023-01-25T07:43:21;95374.50;;;3.33;73.18
10732;BME280;5417;42.686;23.244;2023-01-25T07:45:50;95372.69;;;3.35;73.17
10732;BME280;5417;42.686;23.244;2023-01-25T07:48:19;95376.88;;;3.38;72.18
10732;BME280;5417;42.686;23.244;2023-01-25T07:50:46;95370.13;;;3.35;72.97
10732;BME280;5417;42.686;23.244;2023-01-25T07:53:14;95367.00;;;3.27;72.99
10732;BME280;5417;42.686;23.244;2023-01-25T07:55:41;95372.22;;;3.26;72.99
10732;BME280;5417;42.686;23.244;2023-01-25T07:58:09;95364.03;;;3.38;73.12
10732;BME280;5417;42.686;23.244;2023-01-25T08:00:36;95365.22;;;3.51;72.70
10732;BME280;5417;42.686;23.244;2023-01-25T08:03:05;95369.66;;;3.47;72.60
10732;BME280;5417;42.686;23.244;2023-01-25T08:05:32;95353.78;;;3.36;72.52
10732;BME280;5417;42.686;23.244;2023-01-25T08:07:59;95372.16;;;3.49;72.88
10732;BME280;5417;42.686;23.244;2023-01-25T08:10:27;95370.19;;;3.34;72.29
10732;BME280;5417;42.686;23.244;2023-01-25T08:12:54;95370.66;;;3.22;72.78
10732;BME280;5417;42.686;23.244;2023-01-25T08:15:22;95366.47;;;3.19;73.33
10732;BME280;5417;42.686;23.244;2023-01-25T08:17:52;95369.56;;;3.27;73.47
10732;BME280;5417;42.686;23.244;2023-01-25T08:20:22;95367.56;;;3.35;72.75
10732;BME280;5417;42.686;23.244;2023-01-25T08:22:52;95366.28;;;3.24;73.65
10732;BME280;5417;42.686;23.244;2023-01-25T08:25:20;95369.94;;;3.40;73.73
10732;BME280;5417;42.686;23.244;2023-01-25T08:27:47;95364.16;;;3.35;73.68
10732;BME280;5417;42.686;23.244;2023-01-25T08:30:16;95359.69;;;3.16;73.21
10732;BME280;5417;42.686;23.244;2023-01-25T08:32:43;95352.41;;;3.04;74.30
10732;BME280;5417;42.686;23.244;2023-01-25T08:35:10;95347.94;;;3.09;74.71
10732;BME280;5417;42.686;23.244;2023-01-25T08:37:39;95330.28;;;3.00;75.09
10732;BME280;5417;42.686;23.244;2023-01-25T08:40:06;95358.69;;;3.21;74.67
10732;BME280;5417;42.686;23.244;2023-01-25T08:42:33;95357.25;;;3.12;74.53
10732;BME280;5417;42.686;23.244;2023-01-25T08:45:00;95352.28;;;3.07;74.63
10732;BME280;5417;42.686;23.244;2023-01-25T08:47:28;95353.00;;;3.12;75.03
10732;BME280;5417;42.686;23.244;2023-01-25T08:49:55;95337.44;;;2.92;74.91
10732;BME280;5417;42.686;23.244;2023-01-25T08:52:22;95352.34;;;3.06;75.50
10732;BME280;5417;42.686;23.244;2023-01-25T08:54:50;95355.75;;;3.06;75.61
10732;BME280;5417;42.686;23.244;2023-01-25T08:57:18;95354.03;;;3.07;75.46
10732;BME280;5417;42.686;23.244;2023-01-25T08:59:45;95356.22;;;3.17;75.58
10732;BME280;5417;42.686;23.244;2023-01-25T09:02:13;95347.84;;;3.12;75.14
10732;BME280;5417;42.686;23.244;2023-01-25T09:04:40;95357.13;;;3.16;75.01
10732;BME280;5417;42.686;23.244;2023-01-25T09:07:07;95353.38;;;3.25;74.97
10732;BME280;5417;42.686;23.244;2023-01-25T09:09:34;95360.53;;;3.17;75.58
10732;BME280;5417;42.686;23.244;2023-01-25T09:12:03;95361.31;;;3.19;74.93
10732;BME280;5417;42.686;23.244;2023-01-25T09:14:30;95356.41;;;3.13;75.36
10732;BME280;5417;42.686;23.244;2023-01-25T09:16:57;95339.38;;;3.09;75.73
10732;BME280;5417;42.686;23.244;2023-01-25T09:19:24;95347.66;;;3.17;75.83
10732;BME280;5417;42.686;23.244;2023-01-25T09:21:51;95337.94;;;3.25;75.51
10732;BME280;5417;42.686;23.244;2023-01-25T09:24:18;95335.25;;;3.28;75.54
10732;BME280;5417;42.686;23.244;2023-01-25T09:26:45;95332.50;;;3.33;75.34
10732;BME280;5417;42.686;23.244;2023-01-25T09:29:17;95337.50;;;3.36;75.66
10732;BME280;5417;42.686;23.244;2023-01-25T09:31:47;95322.31;;;3.30;75.42
10732;BME280;5417;42.686;23.244;2023-01-25T09:34:22;95316.09;;;3.35;75.23
10732;BME280;5417;42.686;23.244;2023-01-25T09:36:53;95325.91;;;3.47;75.59
10732;BME280;5417;42.686;23.244;2023-01-25T09:39:20;95323.16;;;3.52;74.73
10732;BME280;5417;42.686;23.244;2023-01-25T09:42:12;95319.16;;;3.67;74.83
10732;BME280;5417;42.686;23.244;2023-01-25T09:44:58;95317.31;;;3.70;74.56
10732;BME280;5417;42.686;23.244;2023-01-25T09:47:31;95300.06;;;3.72;74.11
10732;BME280;5417;42.686;23.244;2023-01-25T09:50:34;95306.16;;;3.70;74.81
10732;BME280;5417;42.686;23.244;2023-01-25T09:53:20;95307.13;;;3.45;74.18
10732;BME280;5417;42.686;23.244;2023-01-25T09:55:51;95299.56;;;3.41;75.04
10732;BME280;5417;42.686;23.244;2023-01-25T09:58:21;95278.34;;;3.36;75.53
10732;BME280;5417;42.686;23.244;2023-01-25T10:01:02;95294.84;;;3.52;76.01
10732;BME280;5417;42.686;23.244;2023-01-25T10:03:33;95288.31;;;3.43;75.74
10732;BME280;5417;42.686;23.244;2023-01-25T10:06:04;95289.75;;;3.51;76.33
10732;BME280;5417;42.686;23.244;2023-01-25T10:08:41;95279.34;;;3.54;76.21
10732;BME280;5417;42.686;23.244;2023-01-25T10:11:15;95275.50;;;3.64;76.15
10732;BME280;5417;42.686;23.244;2023-01-25T10:13:46;95273.09;;;3.59;75.11
10732;BME280;5417;42.686;23.244;2023-01-25T10:16:19;95270.47;;;3.61;74.94
10732;BME280;5417;42.686;23.244;2023-01-25T10:18:55;95261.97;;;3.59;74.72
10732;BME280;5417;42.686;23.244;2023-01-25T10:21:29;95260.47;;;3.53;75.35
10732;BME280;5417;42.686;23.244;2023-01-25T10:27:25;95256.38;;;3.49;75.49
10732;BME280;5417;42.686;23.244;2023-01-25T10:30:16;95258.16;;;3.47;75.37
10732;BME280;5417;42.686;23.244;2023-01-25T10:32:53;95257.13;;;3.51;75.56
10732;BME280;5417;42.686;23.244;2023-01-25T10:35:28;95251.34;;;3.46;74.95
10732;BME280;5417;42.686;23.244;2023-01-25T10:38:10;95242.78;;;3.45;74.98
10732;BME280;5417;42.686;23.244;2023-01-25T10:40:53;95234.09;;;3.48;75.47
10732;BME280;5417;42.686;23.244;2023-01-25T10:43:27;95232.13;;;3.55;75.27
10732;BME280;5417;42.686;23.244;2023-01-25T10:45:59;95230.75;;;3.68;75.24
10732;BME280;5417;42.686;23.244;2023-01-25T10:48:33;95228.47;;;3.80;74.51
10732;BME280;5417;42.686;23.244;2023-01-25T10:51:01;95225.91;;;3.80;73.70
10732;BME280;5417;42.686;23.244;2023-01-25T10:53:30;95217.88;;;3.68;73.01
10732;BME280;5417;42.686;23.244;2023-01-25T10:58:46;95205.22;;;3.62;73.75
10732;BME280;5417;42.686;23.244;2023-01-25T11:01:25;95220.06;;;3.77;74.11
10732;BME280;5417;42.686;23.244;2023-01-25T11:03:55;95211.09;;;3.86;73.03
10732;BME280;5417;42.686;23.244;2023-01-25T11:06:31;95196.72;;;4.00;72.41
10732;BME280;5417;42.686;23.244;2023-01-25T11:08:58;95200.34;;;3.96;71.54
10732;BME280;5417;42.686;23.244;2023-01-25T11:11:31;95194.50;;;3.93;71.62
10732;BME280;5417;42.686;23.244;2023-01-25T11:14:01;95196.56;;;3.85;71.60
10732;BME280;5417;42.686;23.244;2023-01-25T11:16:31;95183.63;;;3.86;72.50
10732;BME280;5417;42.686;23.244;2023-01-25T11:19:02;95187.41;;;3.98;71.95
10732;BME280;5417;42.686;23.244;2023-01-25T11:21:50;95176.47;;;3.93;71.16
10732;BME280;5417;42.686;23.244;2023-01-25T11:24:19;95171.69;;;4.04;71.38
10732;BME280;5417;42.686;23.244;2023-01-25T11:27:11;95189.16;;;4.16;71.61
10732;BME280;5417;42.686;23.244;2023-01-25T11:29:39;95180.81;;;4.11;70.96
10732;BME280;5417;42.686;23.244;2023-01-25T11:32:15;95162.41;;;4.20;71.44
10732;BME280;5417;42.686;23.244;2023-01-25T11:34:48;95167.47;;;4.40;70.45
10732;BME280;5417;42.686;23.244;2023-01-25T11:37:28;95144.44;;;4.37;69.88
10732;BME280;5417;42.686;23.244;2023-01-25T11:40:11;95145.75;;;4.27;69.46
10732;BME280;5417;42.686;23.244;2023-01-25T11:42:45;95151.81;;;4.26;69.46
10732;BME280;5417;42.686;23.244;2023-01-25T11:45:39;95140.66;;;4.26;69.58
10732;BME280;5417;42.686;23.244;2023-01-25T11:51:28;95133.84;;;4.25;69.36
10732;BME280;5417;42.686;23.244;2023-01-25T11:54:34;95143.38;;;4.23;69.40
10732;BME280;5417;42.686;23.244;2023-01-25T11:57:39;95137.72;;;4.15;69.50
10732;BME280;5417;42.686;23.244;2023-01-25T12:00:40;95133.22;;;4.20;69.13
10732;BME280;5417;42.686;23.244;2023-01-25T12:03:52;95130.44;;;4.24;69.21
10732;BME280;5417;42.686;23.244;2023-01-25T12:06:35;95128.63;;;4.26;69.29
10732;BME280;5417;42.686;23.244;2023-01-25T12:09:14;95126.03;;;4.26;69.36
10732;BME280;5417;42.686;23.244;2023-01-25T12:11:54;95125.16;;;4.27;69.29
10732;BME280;5417;42.686;23.244;2023-01-25T12:14:34;95125.56;;;4.37;68.83
10732;BME280;5417;42.686;23.244;2023-01-25T12:17:22;95120.69;;;4.31;68.78
10732;BME280;5417;42.686;23.244;2023-01-25T12:20:16;95112.16;;;4.10;69.03
10732;BME280;5417;42.686;23.244;2023-01-25T12:23:03;95116.53;;;4.08;69.49
10732;BME280;5417;42.686;23.244;2023-01-25T12:25:46;95111.00;;;4.17;69.75
10732;BME280;5417;42.686;23.244;2023-01-25T12:28:21;95092.56;;;4.26;69.27
10732;BME280;5417;42.686;23.244;2023-01-25T12:30:52;95090.66;;;4.30;68.60
10732;BME280;5417;42.686;23.244;2023-01-25T12:33:27;95097.91;;;4.22;68.91
10732;BME280;5417;42.686;23.244;2023-01-25T12:36:02;95097.63;;;4.28;69.26
10732;BME280;5417;42.686;23.244;2023-01-25T12:38:36;95083.28;;;4.22;68.36
10732;BME280;5417;42.686;23.244;2023-01-25T12:41:13;95093.38;;;4.08;68.25
10732;BME280;5417;42.686;23.244;2023-01-25T12:43:47;95095.53;;;3.98;68.98
10732;BME280;5417;42.686;23.244;2023-01-25T12:46:23;95081.81;;;3.98;68.59
10732;BME280;5417;42.686;23.244;2023-01-25T12:48:55;95054.44;;;3.76;69.15
10732;BME280;5417;42.686;23.244;2023-01-25T12:51:28;95085.22;;;3.98;69.04
10732;BME280;5417;42.686;23.244;2023-01-25T12:54:02;95086.41;;;4.10;68.69
10732;BME280;5417;42.686;23.244;2023-01-25T12:56:39;95088.13;;;4.09;68.41
10732;BME280;5417;42.686;23.244;2023-01-25T12:59:14;95084.09;;;4.04;68.44
10732;BME280;5417;42.686;23.244;2023-01-25T13:01:47;95077.28;;;4.03;69.13
10732;BME280;5417;42.686;23.244;2023-01-25T13:04:32;95078.53;;;4.13;68.24
10732;BME280;5417;42.686;23.244;2023-01-25T13:07:09;95065.88;;;3.90;68.16
10732;BME280;5417;42.686;23.244;2023-01-25T13:09:52;95066.69;;;4.09;67.96
10732;BME280;5417;42.686;23.244;2023-01-25T13:12:23;95060.34;;;4.16;68.15
10732;BME280;5417;42.686;23.244;2023-01-25T13:14:50;95069.13;;;4.12;67.90
10732;BME280;5417;42.686;23.244;2023-01-25T13:17:27;95065.59;;;3.96;68.90
10732;BME280;5417;42.686;23.244;2023-01-25T13:22:59;95040.75;;;3.76;68.85
10732;BME280;5417;42.686;23.244;2023-01-25T13:25:32;95049.94;;;3.82;68.35
10732;BME280;5417;42.686;23.244;2023-01-25T13:28:41;95057.59;;;3.83;68.82
10732;BME280;5417;42.686;23.244;2023-01-25T13:37:26;95057.78;;;3.78;69.07
10732;BME280;5417;42.686;23.244;2023-01-25T13:39:55;95043.19;;;3.59;68.85
10732;BME280;5417;42.686;23.244;2023-01-25T13:42:25;95072.75;;;3.70;68.96
10732;BME280;5417;42.686;23.244;2023-01-25T13:44:55;95075.69;;;3.82;69.04
10732;BME280;5417;42.686;23.244;2023-01-25T13:47:24;95067.53;;;3.72;69.34
10732;BME280;5417;42.686;23.244;2023-01-25T13:49:56;95068.84;;;3.80;69.11
10732;BME280;5417;42.686;23.244;2023-01-25T13:52:27;95073.03;;;3.83;69.06
10732;BME280;5417;42.686;23.244;2023-01-25T13:54:56;95072.13;;;3.84;68.71